sensor_id;sensor_type;location;lat;lon;timestamp;temperature;humidity
71206;SHT31;58935;54.498;18.544;2022-08-18T00:00:06;22.16;87.95
71206;SHT31;58935;54.498;18.544;2022-08-18T00:02:37;22.15;88.04
71206;SHT31;58935;54.498;18.544;2022-08-18T00:05:05;22.16;88.06
71206;SHT31;58935;54.498;18.544;2022-08-18T00:07:31;22.16;88.09
71206;SHT31;58935;54.498;18.544;2022-08-18T00:09:59;22.18;88.11
71206;SHT31;58935;54.498;18.544;2022-08-18T00:12:27;22.19;88.05
71206;SHT31;58935;54.498;18.544;2022-08-18T00:14:58;22.20;88.00
71206;SHT31;58935;54.498;18.544;2022-08-18T00:17:28;22.22;88.01
71206;SHT31;58935;54.498;18.544;2022-08-18T00:19:54;22.26;88.10
71206;SHT31;58935;54.498;18.544;2022-08-18T00:22:20;22.28;87.83
71206;SHT31;58935;54.498;18.544;2022-08-18T00:24:48;22.24;87.70
71206;SHT31;58935;54.498;18.544;2022-08-18T00:27:22;22.21;87.72
71206;SHT31;58935;54.498;18.544;2022-08-18T00:29:50;22.20;87.82
71206;SHT31;58935;54.498;18.544;2022-08-18T00:32:19;22.20;87.73
71206;SHT31;58935;54.498;18.544;2022-08-18T00:34:53;22.16;87.68
71206;SHT31;58935;54.498;18.544;2022-08-18T00:37:20;22.16;87.81
71206;SHT31;58935;54.498;18.544;2022-08-18T00:39:49;22.18;87.73
71206;SHT31;58935;54.498;18.544;2022-08-18T00:42:19;22.19;87.66
71206;SHT31;58935;54.498;18.544;2022-08-18T00:44:50;22.17;87.65
71206;SHT31;58935;54.498;18.544;2022-08-18T00:47:16;22.14;87.70
71206;SHT31;58935;54.498;18.544;2022-08-18T00:49:41;22.13;87.73
71206;SHT31;58935;54.498;18.544;2022-08-18T00:52:11;22.13;87.72
71206;SHT31;58935;54.498;18.544;2022-08-18T00:54:40;22.12;87.67
71206;SHT31;58935;54.498;18.544;2022-08-18T00:57:10;22.11;87.76
71206;SHT31;58935;54.498;18.544;2022-08-18T00:59:40;22.11;87.85
71206;SHT31;58935;54.498;18.544;2022-08-18T01:02:21;22.14;87.84
71206;SHT31;58935;54.498;18.544;2022-08-18T01:04:58;22.15;87.84
71206;SHT31;58935;54.498;18.544;2022-08-18T01:07:35;22.14;87.82
71206;SHT31;58935;54.498;18.544;2022-08-18T01:10:09;22.15;87.85
71206;SHT31;58935;54.498;18.544;2022-08-18T01:12:40;22.13;87.86
71206;SHT31;58935;54.498;18.544;2022-08-18T01:15:07;22.14;87.90
71206;SHT31;58935;54.498;18.544;2022-08-18T01:17:35;22.11;87.94
71206;SHT31;58935;54.498;18.544;2022-08-18T01:20:04;22.10;88.04
71206;SHT31;58935;54.498;18.544;2022-08-18T01:22:35;22.12;88.15
71206;SHT31;58935;54.498;18.544;2022-08-18T01:25:16;22.14;88.08
71206;SHT31;58935;54.498;18.544;2022-08-18T01:27:57;22.18;88.09
71206;SHT31;58935;54.498;18.544;2022-08-18T01:30:26;22.19;88.02
71206;SHT31;58935;54.498;18.544;2022-08-18T01:32:52;22.22;88.02
71206;SHT31;58935;54.498;18.544;2022-08-18T01:35:18;22.24;87.97
71206;SHT31;58935;54.498;18.544;2022-08-18T01:37:49;22.25;87.95
71206;SHT31;58935;54.498;18.544;2022-08-18T01:40:16;22.27;87.90
71206;SHT31;58935;54.498;18.544;2022-08-18T01:42:46;22.31;87.97
71206;SHT31;58935;54.498;18.544;2022-08-18T01:45:12;22.33;87.79
71206;SHT31;58935;54.498;18.544;2022-08-18T01:47:40;22.35;87.78
71206;SHT31;58935;54.498;18.544;2022-08-18T01:50:07;22.40;87.83
71206;SHT31;58935;54.498;18.544;2022-08-18T01:52:36;22.44;87.73
71206;SHT31;58935;54.498;18.544;2022-08-18T01:55:02;22.45;87.60
71206;SHT31;58935;54.498;18.544;2022-08-18T01:57:31;22.45;87.57
71206;SHT31;58935;54.498;18.544;2022-08-18T01:59:58;22.45;87.53
71206;SHT31;58935;54.498;18.544;2022-08-18T02:02:25;22.45;87.58
71206;SHT31;58935;54.498;18.544;2022-08-18T02:05:03;22.46;87.54
71206;SHT31;58935;54.498;18.544;2022-08-18T02:07:36;22.46;87.58
71206;SHT31;58935;54.498;18.544;2022-08-18T02:10:03;22.48;87.61
71206;SHT31;58935;54.498;18.544;2022-08-18T02:12:31;22.49;87.64
71206;SHT31;58935;54.498;18.544;2022-08-18T02:14:58;22.51;87.60
71206;SHT31;58935;54.498;18.544;2022-08-18T02:17:23;22.52;87.51
71206;SHT31;58935;54.498;18.544;2022-08-18T02:19:49;22.52;87.49
71206;SHT31;58935;54.498;18.544;2022-08-18T02:22:16;22.52;87.49
71206;SHT31;58935;54.498;18.544;2022-08-18T02:24:44;22.52;87.53
71206;SHT31;58935;54.498;18.544;2022-08-18T02:27:12;22.53;87.57
71206;SHT31;58935;54.498;18.544;2022-08-18T02:29:39;22.54;87.61
71206;SHT31;58935;54.498;18.544;2022-08-18T02:32:05;22.56;87.52
71206;SHT31;58935;54.498;18.544;2022-08-18T02:34:32;22.56;87.47
71206;SHT31;58935;54.498;18.544;2022-08-18T02:36:59;22.60;87.60
71206;SHT31;58935;54.498;18.544;2022-08-18T02:39:25;22.63;87.43
71206;SHT31;58935;54.498;18.544;2022-08-18T02:41:52;22.67;87.35
71206;SHT31;58935;54.498;18.544;2022-08-18T02:44:17;22.65;87.06
71206;SHT31;58935;54.498;18.544;2022-08-18T02:46:43;22.60;87.00
71206;SHT31;58935;54.498;18.544;2022-08-18T02:49:08;22.58;87.15
71206;SHT31;58935;54.498;18.544;2022-08-18T02:51:35;22.60;87.29
71206;SHT31;58935;54.498;18.544;2022-08-18T02:54:00;22.61;87.20
71206;SHT31;58935;54.498;18.544;2022-08-18T02:56:27;22.60;87.06
71206;SHT31;58935;54.498;18.544;2022-08-18T02:58:57;22.56;86.92
71206;SHT31;58935;54.498;18.544;2022-08-18T03:01:28;22.48;87.01
71206;SHT31;58935;54.498;18.544;2022-08-18T03:04:06;22.42;87.16
71206;SHT31;58935;54.498;18.544;2022-08-18T03:06:35;22.36;87.30
71206;SHT31;58935;54.498;18.544;2022-08-18T03:09:04;22.30;87.48
71206;SHT31;58935;54.498;18.544;2022-08-18T03:11:32;22.23;87.58
71206;SHT31;58935;54.498;18.544;2022-08-18T03:13:57;22.20;87.81
71206;SHT31;58935;54.498;18.544;2022-08-18T03:16:24;22.21;87.96
71206;SHT31;58935;54.498;18.544;2022-08-18T03:18:50;22.24;88.10
71206;SHT31;58935;54.498;18.544;2022-08-18T03:21:19;22.30;88.07
71206;SHT31;58935;54.498;18.544;2022-08-18T03:23:49;22.36;88.05
71206;SHT31;58935;54.498;18.544;2022-08-18T03:26:18;22.43;87.91
71206;SHT31;58935;54.498;18.544;2022-08-18T03:28:46;22.49;87.81
71206;SHT31;58935;54.498;18.544;2022-08-18T03:31:14;22.58;87.69
71206;SHT31;58935;54.498;18.544;2022-08-18T03:33:43;22.63;87.37
71206;SHT31;58935;54.498;18.544;2022-08-18T03:36:12;22.64;87.17
71206;SHT31;58935;54.498;18.544;2022-08-18T03:38:41;22.63;87.10
71206;SHT31;58935;54.498;18.544;2022-08-18T03:41:09;22.62;87.10
71206;SHT31;58935;54.498;18.544;2022-08-18T03:43:37;22.63;87.13
71206;SHT31;58935;54.498;18.544;2022-08-18T03:46:04;22.62;87.04
71206;SHT31;58935;54.498;18.544;2022-08-18T03:48:34;22.62;87.10
71206;SHT31;58935;54.498;18.544;2022-08-18T03:51:06;22.62;86.97
71206;SHT31;58935;54.498;18.544;2022-08-18T03:53:37;22.60;87.00
71206;SHT31;58935;54.498;18.544;2022-08-18T03:56:07;22.60;87.08
71206;SHT31;58935;54.498;18.544;2022-08-18T03:58:40;22.63;87.05
71206;SHT31;58935;54.498;18.544;2022-08-18T04:01:12;22.67;87.06
71206;SHT31;58935;54.498;18.544;2022-08-18T04:03:41;22.73;87.05
71206;SHT31;58935;54.498;18.544;2022-08-18T04:06:13;22.77;86.78
71206;SHT31;58935;54.498;18.544;2022-08-18T04:08:41;22.77;86.58
71206;SHT31;58935;54.498;18.544;2022-08-18T04:11:08;22.79;86.66
71206;SHT31;58935;54.498;18.544;2022-08-18T04:13:35;22.82;86.62
71206;SHT31;58935;54.498;18.544;2022-08-18T04:16:01;22.87;86.61
71206;SHT31;58935;54.498;18.544;2022-08-18T04:18:27;22.92;86.51
71206;SHT31;58935;54.498;18.544;2022-08-18T04:20:53;22.97;86.47
71206;SHT31;58935;54.498;18.544;2022-08-18T04:23:18;23.01;86.22
71206;SHT31;58935;54.498;18.544;2022-08-18T04:25:45;23.03;86.23
71206;SHT31;58935;54.498;18.544;2022-08-18T04:28:10;23.12;86.32
71206;SHT31;58935;54.498;18.544;2022-08-18T04:30:36;23.19;86.11
71206;SHT31;58935;54.498;18.544;2022-08-18T04:33:01;23.26;85.94
71206;SHT31;58935;54.498;18.544;2022-08-18T04:35:29;23.29;85.73
71206;SHT31;58935;54.498;18.544;2022-08-18T04:37:55;23.31;85.61
71206;SHT31;58935;54.498;18.544;2022-08-18T04:40:20;23.37;85.66
71206;SHT31;58935;54.498;18.544;2022-08-18T04:42:45;23.46;85.49
71206;SHT31;58935;54.498;18.544;2022-08-18T04:45:11;23.55;85.50
71206;SHT31;58935;54.498;18.544;2022-08-18T04:47:37;23.62;85.10
71206;SHT31;58935;54.498;18.544;2022-08-18T04:50:05;23.67;84.90
71206;SHT31;58935;54.498;18.544;2022-08-18T04:52:32;23.73;84.71
71206;SHT31;58935;54.498;18.544;2022-08-18T04:55:02;23.80;84.67
71206;SHT31;58935;54.498;18.544;2022-08-18T04:57:30;23.91;84.38
71206;SHT31;58935;54.498;18.544;2022-08-18T04:59:57;23.93;83.82
71206;SHT31;58935;54.498;18.544;2022-08-18T05:02:23;23.95;83.56
71206;SHT31;58935;54.498;18.544;2022-08-18T05:04:49;23.97;83.46
71206;SHT31;58935;54.498;18.544;2022-08-18T05:07:15;24.00;83.45
71206;SHT31;58935;54.498;18.544;2022-08-18T05:09:45;24.03;83.23
71206;SHT31;58935;54.498;18.544;2022-08-18T05:12:11;24.08;83.03
71206;SHT31;58935;54.498;18.544;2022-08-18T05:14:39;24.12;83.01
71206;SHT31;58935;54.498;18.544;2022-08-18T05:17:08;24.16;82.66
71206;SHT31;58935;54.498;18.544;2022-08-18T05:19:35;24.18;82.69
71206;SHT31;58935;54.498;18.544;2022-08-18T05:22:01;24.23;82.41
71206;SHT31;58935;54.498;18.544;2022-08-18T05:24:29;24.27;82.19
71206;SHT31;58935;54.498;18.544;2022-08-18T05:26:57;24.32;82.16
71206;SHT31;58935;54.498;18.544;2022-08-18T05:29:23;24.40;82.19
71206;SHT31;58935;54.498;18.544;2022-08-18T05:31:51;24.47;81.88
71206;SHT31;58935;54.498;18.544;2022-08-18T05:34:18;24.51;81.78
71206;SHT31;58935;54.498;18.544;2022-08-18T05:36:56;24.57;81.61
71206;SHT31;58935;54.498;18.544;2022-08-18T05:39:45;24.62;81.35
71206;SHT31;58935;54.498;18.544;2022-08-18T05:42:21;24.63;81.22
71206;SHT31;58935;54.498;18.544;2022-08-18T05:44:50;24.64;81.22
71206;SHT31;58935;54.498;18.544;2022-08-18T05:47:21;24.68;81.10
71206;SHT31;58935;54.498;18.544;2022-08-18T05:49:51;24.70;80.83
71206;SHT31;58935;54.498;18.544;2022-08-18T05:52:23;24.68;80.84
71206;SHT31;58935;54.498;18.544;2022-08-18T05:55:00;24.68;81.11
71206;SHT31;58935;54.498;18.544;2022-08-18T06:00:08;24.74;81.15
71206;SHT31;58935;54.498;18.544;2022-08-18T06:02:37;24.76;81.19
71206;SHT31;58935;54.498;18.544;2022-08-18T06:05:18;24.83;81.07
71206;SHT31;58935;54.498;18.544;2022-08-18T06:07:59;24.91;80.92
71206;SHT31;58935;54.498;18.544;2022-08-18T06:10:33;24.96;80.56
71206;SHT31;58935;54.498;18.544;2022-08-18T06:13:00;25.00;80.31
71206;SHT31;58935;54.498;18.544;2022-08-18T06:15:37;25.07;80.23
71206;SHT31;58935;54.498;18.544;2022-08-18T06:21:25;25.25;79.54
71206;SHT31;58935;54.498;18.544;2022-08-18T06:29:44;25.42;78.88
71206;SHT31;58935;54.498;18.544;2022-08-18T06:32:38;25.46;78.44
71206;SHT31;58935;54.498;18.544;2022-08-18T06:44:00;25.67;76.87
71206;SHT31;58935;54.498;18.544;2022-08-18T06:46:42;25.73;76.50
71206;SHT31;58935;54.498;18.544;2022-08-18T06:49:34;25.78;75.93
71206;SHT31;58935;54.498;18.544;2022-08-18T06:54:59;25.90;75.31
71206;SHT31;58935;54.498;18.544;2022-08-18T07:00:25;25.94;75.50
71206;SHT31;58935;54.498;18.544;2022-08-18T07:08:31;25.95;76.13
71206;SHT31;58935;54.498;18.544;2022-08-18T07:11:18;25.99;76.01
71206;SHT31;58935;54.498;18.544;2022-08-18T07:13:55;26.04;75.86
71206;SHT31;58935;54.498;18.544;2022-08-18T07:16:34;26.04;75.58
71206;SHT31;58935;54.498;18.544;2022-08-18T07:19:06;26.00;75.60
71206;SHT31;58935;54.498;18.544;2022-08-18T07:21:45;25.98;75.71
71206;SHT31;58935;54.498;18.544;2022-08-18T07:24:26;25.99;75.71
71206;SHT31;58935;54.498;18.544;2022-08-18T07:27:02;26.01;75.62
71206;SHT31;58935;54.498;18.544;2022-08-18T07:29:34;26.00;75.43
71206;SHT31;58935;54.498;18.544;2022-08-18T07:32:13;25.97;75.52
71206;SHT31;58935;54.498;18.544;2022-08-18T07:34:45;25.98;75.54
71206;SHT31;58935;54.498;18.544;2022-08-18T07:37:18;26.02;75.57
71206;SHT31;58935;54.498;18.544;2022-08-18T07:39:54;26.08;75.38
71206;SHT31;58935;54.498;18.544;2022-08-18T07:53:39;26.24;74.57
71206;SHT31;58935;54.498;18.544;2022-08-18T07:56:27;26.29;74.51
71206;SHT31;58935;54.498;18.544;2022-08-18T07:59:28;26.32;74.51
71206;SHT31;58935;54.498;18.544;2022-08-18T08:02:25;26.41;74.25
71206;SHT31;58935;54.498;18.544;2022-08-18T08:05:11;26.48;73.94
71206;SHT31;58935;54.498;18.544;2022-08-18T08:08:10;26.53;73.57
71206;SHT31;58935;54.498;18.544;2022-08-18T08:11:00;26.58;73.03
71206;SHT31;58935;54.498;18.544;2022-08-18T08:13:45;26.64;72.47
71206;SHT31;58935;54.498;18.544;2022-08-18T08:21:47;26.76;71.53
71206;SHT31;58935;54.498;18.544;2022-08-18T08:24:32;26.81;71.25
71206;SHT31;58935;54.498;18.544;2022-08-18T08:27:19;26.85;70.96
71206;SHT31;58935;54.498;18.544;2022-08-18T08:30:08;26.90;70.72
71206;SHT31;58935;54.498;18.544;2022-08-18T08:35:44;26.94;70.02
71206;SHT31;58935;54.498;18.544;2022-08-18T08:38:26;26.89;69.66
71206;SHT31;58935;54.498;18.544;2022-08-18T08:41:17;26.82;69.80
71206;SHT31;58935;54.498;18.544;2022-08-18T08:43:59;26.80;69.71
71206;SHT31;58935;54.498;18.544;2022-08-18T08:46:44;26.76;68.98
71206;SHT31;58935;54.498;18.544;2022-08-18T08:49:26;26.70;69.26
71206;SHT31;58935;54.498;18.544;2022-08-18T08:52:04;26.61;69.46
71206;SHT31;58935;54.498;18.544;2022-08-18T08:54:42;26.58;69.72
71206;SHT31;58935;54.498;18.544;2022-08-18T08:57:16;26.58;69.54
71206;SHT31;58935;54.498;18.544;2022-08-18T08:59:46;26.56;69.58
71206;SHT31;58935;54.498;18.544;2022-08-18T09:04:57;26.57;69.58
71206;SHT31;58935;54.498;18.544;2022-08-18T09:07:44;26.58;69.43
71206;SHT31;58935;54.498;18.544;2022-08-18T09:13:09;26.68;69.41
71206;SHT31;58935;54.498;18.544;2022-08-18T09:21:28;26.63;69.62
71206;SHT31;58935;54.498;18.544;2022-08-18T09:24:12;26.63;69.21
71206;SHT31;58935;54.498;18.544;2022-08-18T09:26:49;26.61;69.16
71206;SHT31;58935;54.498;18.544;2022-08-18T09:29:54;26.63;69.13
71206;SHT31;58935;54.498;18.544;2022-08-18T09:32:43;26.63;68.89
71206;SHT31;58935;54.498;18.544;2022-08-18T09:35:26;26.61;68.77
71206;SHT31;58935;54.498;18.544;2022-08-18T09:38:11;26.63;68.99
71206;SHT31;58935;54.498;18.544;2022-08-18T09:40:50;26.73;68.96
71206;SHT31;58935;54.498;18.544;2022-08-18T09:43:28;26.78;68.40
71206;SHT31;58935;54.498;18.544;2022-08-18T09:46:04;26.86;68.29
71206;SHT31;58935;54.498;18.544;2022-08-18T09:48:34;26.90;68.15
71206;SHT31;58935;54.498;18.544;2022-08-18T09:51:14;26.97;68.19
71206;SHT31;58935;54.498;18.544;2022-08-18T10:05:31;27.24;67.33
71206;SHT31;58935;54.498;18.544;2022-08-18T10:08:24;27.29;67.37
71206;SHT31;58935;54.498;18.544;2022-08-18T10:10:54;27.39;67.12
71206;SHT31;58935;54.498;18.544;2022-08-18T10:13:46;27.44;65.93
71206;SHT31;58935;54.498;18.544;2022-08-18T10:19:18;27.56;66.20
71206;SHT31;58935;54.498;18.544;2022-08-18T10:22:00;27.52;65.98
71206;SHT31;58935;54.498;18.544;2022-08-18T10:24:37;27.44;66.21
71206;SHT31;58935;54.498;18.544;2022-08-18T10:27:33;27.38;67.11
71206;SHT31;58935;54.498;18.544;2022-08-18T10:30:42;27.34;67.51
71206;SHT31;58935;54.498;18.544;2022-08-18T10:39:16;27.38;66.62
71206;SHT31;58935;54.498;18.544;2022-08-18T10:41:51;27.34;66.73
71206;SHT31;58935;54.498;18.544;2022-08-18T10:44:31;27.34;66.88
71206;SHT31;58935;54.498;18.544;2022-08-18T10:47:06;27.31;66.59
71206;SHT31;58935;54.498;18.544;2022-08-18T10:49:46;27.31;66.55
71206;SHT31;58935;54.498;18.544;2022-08-18T10:52:18;27.33;66.42
71206;SHT31;58935;54.498;18.544;2022-08-18T10:55:08;27.29;66.05
71206;SHT31;58935;54.498;18.544;2022-08-18T10:57:59;27.24;66.08
71206;SHT31;58935;54.498;18.544;2022-08-18T11:00:45;27.25;66.22
71206;SHT31;58935;54.498;18.544;2022-08-18T11:03:27;27.25;65.89
71206;SHT31;58935;54.498;18.544;2022-08-18T11:06:16;27.27;66.57
71206;SHT31;58935;54.498;18.544;2022-08-18T11:08:49;27.25;67.48
71206;SHT31;58935;54.498;18.544;2022-08-18T11:11:24;27.24;67.74
71206;SHT31;58935;54.498;18.544;2022-08-18T11:16:52;27.33;68.58
71206;SHT31;58935;54.498;18.544;2022-08-18T11:19:34;27.40;67.64
71206;SHT31;58935;54.498;18.544;2022-08-18T11:22:03;27.45;67.47
71206;SHT31;58935;54.498;18.544;2022-08-18T11:24:30;27.51;67.14
71206;SHT31;58935;54.498;18.544;2022-08-18T11:27:00;27.56;66.56
71206;SHT31;58935;54.498;18.544;2022-08-18T11:29:32;27.55;66.29
71206;SHT31;58935;54.498;18.544;2022-08-18T11:32:03;27.53;66.16
71206;SHT31;58935;54.498;18.544;2022-08-18T11:34:40;27.53;66.60
71206;SHT31;58935;54.498;18.544;2022-08-18T11:40:04;27.55;67.15
71206;SHT31;58935;54.498;18.544;2022-08-18T11:42:39;27.63;67.10
71206;SHT31;58935;54.498;18.544;2022-08-18T11:45:19;27.68;66.56
71206;SHT31;58935;54.498;18.544;2022-08-18T11:50:28;27.78;66.20
71206;SHT31;58935;54.498;18.544;2022-08-18T11:52:56;27.84;66.68
71206;SHT31;58935;54.498;18.544;2022-08-18T11:56:02;28.02;66.35
71206;SHT31;58935;54.498;18.544;2022-08-18T11:58:36;28.19;65.88
71206;SHT31;58935;54.498;18.544;2022-08-18T12:01:05;28.26;64.56
71206;SHT31;58935;54.498;18.544;2022-08-18T12:03:38;28.24;64.71
71206;SHT31;58935;54.498;18.544;2022-08-18T12:06:18;28.16;64.78
71206;SHT31;58935;54.498;18.544;2022-08-18T12:08:56;28.06;64.67
71206;SHT31;58935;54.498;18.544;2022-08-18T12:14:22;27.82;64.80
71206;SHT31;58935;54.498;18.544;2022-08-18T12:16:50;27.82;65.05
71206;SHT31;58935;54.498;18.544;2022-08-18T12:19:17;27.81;65.07
71206;SHT31;58935;54.498;18.544;2022-08-18T12:21:45;27.79;65.38
71206;SHT31;58935;54.498;18.544;2022-08-18T12:24:21;27.83;65.14
71206;SHT31;58935;54.498;18.544;2022-08-18T12:26:52;27.86;64.63
71206;SHT31;58935;54.498;18.544;2022-08-18T12:29:18;27.84;65.12
71206;SHT31;58935;54.498;18.544;2022-08-18T12:31:45;27.84;65.21
71206;SHT31;58935;54.498;18.544;2022-08-18T12:34:15;27.86;65.47
71206;SHT31;58935;54.498;18.544;2022-08-18T12:36:44;27.92;65.61
71206;SHT31;58935;54.498;18.544;2022-08-18T12:39:10;27.98;65.60
71206;SHT31;58935;54.498;18.544;2022-08-18T12:41:36;28.02;65.88
71206;SHT31;58935;54.498;18.544;2022-08-18T12:44:01;27.98;65.38
71206;SHT31;58935;54.498;18.544;2022-08-18T12:46:28;27.95;65.45
71206;SHT31;58935;54.498;18.544;2022-08-18T12:48:54;27.91;65.49
71206;SHT31;58935;54.498;18.544;2022-08-18T12:51:20;27.88;66.01
71206;SHT31;58935;54.498;18.544;2022-08-18T12:53:46;27.86;65.47
71206;SHT31;58935;54.498;18.544;2022-08-18T12:56:20;27.85;65.62
71206;SHT31;58935;54.498;18.544;2022-08-18T12:58:55;27.92;65.42
71206;SHT31;58935;54.498;18.544;2022-08-18T13:01:23;27.96;65.15
71206;SHT31;58935;54.498;18.544;2022-08-18T13:03:49;27.97;64.91
71206;SHT31;58935;54.498;18.544;2022-08-18T13:06:19;27.99;65.00
71206;SHT31;58935;54.498;18.544;2022-08-18T13:08:47;27.99;64.44
71206;SHT31;58935;54.498;18.544;2022-08-18T13:11:14;27.99;65.19
71206;SHT31;58935;54.498;18.544;2022-08-18T13:13:42;28.02;64.71
71206;SHT31;58935;54.498;18.544;2022-08-18T13:16:09;28.02;64.47
71206;SHT31;58935;54.498;18.544;2022-08-18T13:18:35;28.07;65.04
71206;SHT31;58935;54.498;18.544;2022-08-18T13:21:03;28.06;65.29
71206;SHT31;58935;54.498;18.544;2022-08-18T13:23:30;28.06;64.90
71206;SHT31;58935;54.498;18.544;2022-08-18T13:25:57;28.09;64.89
71206;SHT31;58935;54.498;18.544;2022-08-18T13:28:25;28.06;64.55
71206;SHT31;58935;54.498;18.544;2022-08-18T13:30:51;27.98;64.55
71206;SHT31;58935;54.498;18.544;2022-08-18T13:33:19;27.86;65.50
71206;SHT31;58935;54.498;18.544;2022-08-18T13:35:45;27.82;65.63
71206;SHT31;58935;54.498;18.544;2022-08-18T13:38:12;27.74;65.40
71206;SHT31;58935;54.498;18.544;2022-08-18T13:40:42;27.68;65.79
71206;SHT31;58935;54.498;18.544;2022-08-18T13:43:08;27.65;65.94
71206;SHT31;58935;54.498;18.544;2022-08-18T13:45:35;27.66;66.13
71206;SHT31;58935;54.498;18.544;2022-08-18T13:48:01;27.69;66.04
71206;SHT31;58935;54.498;18.544;2022-08-18T13:50:26;27.72;65.57
71206;SHT31;58935;54.498;18.544;2022-08-18T13:52:52;27.80;65.34
71206;SHT31;58935;54.498;18.544;2022-08-18T13:55:18;27.89;64.76
71206;SHT31;58935;54.498;18.544;2022-08-18T13:57:45;27.92;65.26
71206;SHT31;58935;54.498;18.544;2022-08-18T14:00:13;27.94;65.12
71206;SHT31;58935;54.498;18.544;2022-08-18T14:02:44;28.00;64.56
71206;SHT31;58935;54.498;18.544;2022-08-18T14:05:17;27.99;64.20
71206;SHT31;58935;54.498;18.544;2022-08-18T14:07:45;27.94;64.25
71206;SHT31;58935;54.498;18.544;2022-08-18T14:10:10;27.89;64.76
71206;SHT31;58935;54.498;18.544;2022-08-18T14:12:38;27.83;65.32
71206;SHT31;58935;54.498;18.544;2022-08-18T14:15:07;27.79;65.64
71206;SHT31;58935;54.498;18.544;2022-08-18T14:17:37;27.79;65.32
71206;SHT31;58935;54.498;18.544;2022-08-18T14:20:03;27.73;65.09
71206;SHT31;58935;54.498;18.544;2022-08-18T14:22:34;27.68;65.36
71206;SHT31;58935;54.498;18.544;2022-08-18T14:25:03;27.69;65.81
71206;SHT31;58935;54.498;18.544;2022-08-18T14:27:34;27.68;65.84
71206;SHT31;58935;54.498;18.544;2022-08-18T14:30:07;27.64;65.91
71206;SHT31;58935;54.498;18.544;2022-08-18T14:32:37;27.65;66.43
71206;SHT31;58935;54.498;18.544;2022-08-18T14:35:10;27.67;66.56
71206;SHT31;58935;54.498;18.544;2022-08-18T14:37:37;27.59;66.24
71206;SHT31;58935;54.498;18.544;2022-08-18T14:40:05;27.46;66.54
71206;SHT31;58935;54.498;18.544;2022-08-18T14:42:32;27.35;66.59
71206;SHT31;58935;54.498;18.544;2022-08-18T14:44:59;27.32;66.91
71206;SHT31;58935;54.498;18.544;2022-08-18T14:47:25;27.31;66.47
71206;SHT31;58935;54.498;18.544;2022-08-18T14:49:51;27.33;66.47
71206;SHT31;58935;54.498;18.544;2022-08-18T14:52:18;27.41;66.75
71206;SHT31;58935;54.498;18.544;2022-08-18T14:54:47;27.50;66.35
71206;SHT31;58935;54.498;18.544;2022-08-18T14:57:13;27.58;66.35
71206;SHT31;58935;54.498;18.544;2022-08-18T14:59:39;27.61;66.53
71206;SHT31;58935;54.498;18.544;2022-08-18T15:02:05;27.59;66.77
71206;SHT31;58935;54.498;18.544;2022-08-18T15:04:34;27.57;66.41
71206;SHT31;58935;54.498;18.544;2022-08-18T15:07:01;27.57;66.90
71206;SHT31;58935;54.498;18.544;2022-08-18T15:09:26;27.55;66.57
71206;SHT31;58935;54.498;18.544;2022-08-18T15:11:57;27.52;66.39
71206;SHT31;58935;54.498;18.544;2022-08-18T15:14:24;27.50;66.59
71206;SHT31;58935;54.498;18.544;2022-08-18T15:16:55;27.47;66.47
71206;SHT31;58935;54.498;18.544;2022-08-18T15:19:22;27.42;66.24
71206;SHT31;58935;54.498;18.544;2022-08-18T15:21:49;27.35;66.41
71206;SHT31;58935;54.498;18.544;2022-08-18T15:24:18;27.27;66.65
71206;SHT31;58935;54.498;18.544;2022-08-18T15:26:47;27.18;66.63
71206;SHT31;58935;54.498;18.544;2022-08-18T15:29:18;27.12;66.82
71206;SHT31;58935;54.498;18.544;2022-08-18T15:31:43;27.08;67.20
71206;SHT31;58935;54.498;18.544;2022-08-18T15:34:09;27.05;66.56
71206;SHT31;58935;54.498;18.544;2022-08-18T15:36:34;27.06;66.75
71206;SHT31;58935;54.498;18.544;2022-08-18T15:39:00;27.05;66.45
71206;SHT31;58935;54.498;18.544;2022-08-18T15:41:31;26.95;67.52
71206;SHT31;58935;54.498;18.544;2022-08-18T15:44:02;26.83;68.21
71206;SHT31;58935;54.498;18.544;2022-08-18T15:46:33;26.72;68.44
71206;SHT31;58935;54.498;18.544;2022-08-18T15:49:02;26.63;68.27
71206;SHT31;58935;54.498;18.544;2022-08-18T15:51:31;26.59;68.23
71206;SHT31;58935;54.498;18.544;2022-08-18T15:53:57;26.60;68.01
71206;SHT31;58935;54.498;18.544;2022-08-18T15:56:23;26.66;67.75
71206;SHT31;58935;54.498;18.544;2022-08-18T15:58:50;26.75;68.10
71206;SHT31;58935;54.498;18.544;2022-08-18T16:01:17;26.83;67.67
71206;SHT31;58935;54.498;18.544;2022-08-18T16:03:46;26.83;68.04
71206;SHT31;58935;54.498;18.544;2022-08-18T16:06:15;26.85;68.08
71206;SHT31;58935;54.498;18.544;2022-08-18T16:08:48;26.87;68.01
71206;SHT31;58935;54.498;18.544;2022-08-18T16:11:14;26.95;67.45
71206;SHT31;58935;54.498;18.544;2022-08-18T16:13:43;27.07;67.01
71206;SHT31;58935;54.498;18.544;2022-08-18T16:16:12;27.14;66.42
71206;SHT31;58935;54.498;18.544;2022-08-18T16:18:42;27.24;65.71
71206;SHT31;58935;54.498;18.544;2022-08-18T16:21:10;27.31;65.89
71206;SHT31;58935;54.498;18.544;2022-08-18T16:23:42;27.36;65.93
71206;SHT31;58935;54.498;18.544;2022-08-18T16:26:11;27.33;66.05
71206;SHT31;58935;54.498;18.544;2022-08-18T16:28:40;27.31;66.12
71206;SHT31;58935;54.498;18.544;2022-08-18T16:31:08;27.26;66.39
71206;SHT31;58935;54.498;18.544;2022-08-18T16:33:34;27.19;66.62
71206;SHT31;58935;54.498;18.544;2022-08-18T16:36:03;27.08;66.61
71206;SHT31;58935;54.498;18.544;2022-08-18T16:38:32;26.96;66.89
71206;SHT31;58935;54.498;18.544;2022-08-18T16:41:06;26.82;66.76
71206;SHT31;58935;54.498;18.544;2022-08-18T16:43:36;26.69;67.65
71206;SHT31;58935;54.498;18.544;2022-08-18T16:46:03;26.59;67.41
71206;SHT31;58935;54.498;18.544;2022-08-18T16:48:41;26.49;67.25
71206;SHT31;58935;54.498;18.544;2022-08-18T16:51:11;26.44;67.48
71206;SHT31;58935;54.498;18.544;2022-08-18T16:53:40;26.37;67.74
71206;SHT31;58935;54.498;18.544;2022-08-18T16:56:09;26.31;68.08
71206;SHT31;58935;54.498;18.544;2022-08-18T16:58:38;26.29;68.17
71206;SHT31;58935;54.498;18.544;2022-08-18T17:01:07;26.27;68.13
71206;SHT31;58935;54.498;18.544;2022-08-18T17:03:36;26.27;68.04
71206;SHT31;58935;54.498;18.544;2022-08-18T17:06:06;26.27;67.79
71206;SHT31;58935;54.498;18.544;2022-08-18T17:08:36;26.26;67.97
71206;SHT31;58935;54.498;18.544;2022-08-18T17:11:04;26.24;68.14
71206;SHT31;58935;54.498;18.544;2022-08-18T17:13:34;26.21;68.34
71206;SHT31;58935;54.498;18.544;2022-08-18T17:16:00;26.17;68.43